Time;durP1;ratioP1;P1;durP2;ratioP2;P2;SDS_P1;SDS_P2;PMS_P1;PMS_P2;Temp;Humidity;BMP_temperature;BMP_pressure;BME280_temperature;BME280_humidity;BME280_pressure;Samples;Min_cycle;Max_cycle;Signal;HPM_P1;HPM_P2
2024/01/15 00:01:12;;;;;;;25.08;12.38;;;;;;;2.18;98.09;99834.81;4985960;28;20042;-66
2024/01/15 00:03:37;;;;;;;27.98;11.55;;;;;;;2.18;98.15;99832.25;4989837;28;20100;-66
2024/01/15 00:06:03;;;;;;;35.28;13.07;;;;;;;2.19;97.98;99828.88;4993769;28;20050;-66
2024/01/15 00:08:28;;;;;;;28.30;11.80;;;;;;;2.19;98.06;99829.72;4984768;28;20038;-67
2024/01/15 00:10:54;;;;;;;28.05;12.43;;;;;;;2.20;98.93;99833.13;4992234;28;20653;-66
2024/01/15 00:13:19;;;;;;;26.45;11.98;;;;;;;2.18;99.44;99830.56;4994610;28;20478;-66
2024/01/15 00:15:44;;;;;;;23.38;11.23;;;;;;;2.17;99.93;99835.63;4988240;28;20394;-67
2024/01/15 00:18:10;;;;;;;28.17;11.43;;;;;;;2.14;100.00;99831.38;4999360;28;20037;-67
2024/01/15 00:20:35;;;;;;;24.25;10.98;;;;;;;2.11;100.00;99828.78;4990896;28;20072;-67
2024/01/15 00:23:01;;;;;;;29.10;12.63;;;;;;;2.10;100.00;99819.41;4991237;28;20038;-66
2024/01/15 00:25:26;;;;;;;24.85;11.30;;;;;;;2.08;100.00;99816.00;4989158;28;20586;-66
2024/01/15 00:27:51;;;;;;;23.63;11.02;;;;;;;2.07;100.00;99816.00;4988828;28;20042;-66
2024/01/15 00:30:17;;;;;;;29.98;12.30;;;;;;;2.06;100.00;99824.47;4990249;28;20065;-66
2024/01/15 00:32:42;;;;;;;32.08;13.40;;;;;;;2.04;100.00;99815.97;4996104;28;20095;-67
2024/01/15 00:35:08;;;;;;;27.13;11.93;;;;;;;2.02;100.00;99820.19;4992533;28;20033;-66
2024/01/15 00:37:33;;;;;;;32.10;12.93;;;;;;;2.01;100.00;99813.41;4990922;28;20042;-66
2024/01/15 00:39:59;;;;;;;28.13;12.55;;;;;;;1.99;100.00;99818.47;4989522;28;20514;-66
2024/01/15 00:42:24;;;;;;;27.95;12.02;;;;;;;1.97;100.00;99812.50;4989146;28;20126;-66
2024/01/15 00:44:50;;;;;;;25.88;12.02;;;;;;;1.96;100.00;99817.56;4990922;28;20137;-67
2024/01/15 00:47:15;;;;;;;29.85;13.20;;;;;;;1.95;100.00;99815.88;4993714;28;20038;-66
2024/01/15 00:49:40;;;;;;;33.97;14.23;;;;;;;1.96;100.00;99815.00;4992433;28;20042;-66
2024/01/15 00:52:06;;;;;;;20.45;10.93;;;;;;;1.94;100.00;99812.47;4989145;28;20038;-66
2024/01/15 00:54:31;;;;;;;27.88;12.35;;;;;;;1.93;100.00;99814.97;4987150;28;20519;-67
2024/01/15 00:56:57;;;;;;;32.35;13.82;;;;;;;1.87;100.00;99810.69;4988759;28;20046;-66
2024/01/15 00:59:22;;;;;;;31.52;12.88;;;;;;;1.86;100.00;99809.81;4989023;28;20034;-66
2024/01/15 01:01:47;;;;;;;27.77;12.13;;;;;;;1.83;100.00;99814.06;4990302;28;20030;-66
2024/01/15 01:04:13;;;;;;;30.63;12.90;;;;;;;1.83;100.00;99816.59;4988381;28;20466;-67
2024/01/15 01:06:39;;;;;;;30.70;12.05;;;;;;;1.82;100.00;99803.00;4990963;28;20574;-67
2024/01/15 01:09:04;;;;;;;27.13;12.40;;;;;;;1.82;100.00;99812.34;4995677;28;20042;-67
2024/01/15 01:11:30;;;;;;;31.45;12.45;;;;;;;1.82;100.00;99813.19;4995341;28;20103;-67
2024/01/15 01:13:56;;;;;;;27.00;12.55;;;;;;;1.80;100.00;99808.91;4991011;28;20034;-67
2024/01/15 01:16:22;;;;;;;38.00;13.07;;;;;;;1.79;100.00;99808.06;4987060;28;20403;-67
2024/01/15 01:18:47;;;;;;;32.03;13.23;;;;;;;1.80;100.00;99814.00;4994906;28;20042;-67
2024/01/15 01:21:13;;;;;;;29.70;12.20;;;;;;;1.79;100.00;99808.06;4990059;28;20057;-67
2024/01/15 01:23:38;;;;;;;28.45;12.05;;;;;;;1.81;100.00;99808.06;4991564;28;20042;-67
2024/01/15 01:26:03;;;;;;;25.58;13.00;;;;;;;1.81;100.00;99810.59;4992624;28;20083;-67
2024/01/15 01:28:29;;;;;;;31.83;13.25;;;;;;;1.82;100.00;99810.66;4999964;28;20049;-68
2024/01/15 01:30:54;;;;;;;33.65;12.23;;;;;;;1.74;100.00;99814.81;4996062;28;20562;-68
2024/01/15 01:33:20;;;;;;;29.55;12.65;;;;;;;1.66;100.00;99811.28;4989620;28;20035;-67
2024/01/15 01:35:46;;;;;;;30.20;13.07;;;;;;;1.62;100.00;99811.25;4990782;28;20116;-67
2024/01/15 01:38:12;;;;;;;31.85;14.05;;;;;;;1.54;100.00;99813.69;4989897;28;20022;-68
2024/01/15 01:40:37;;;;;;;27.60;13.95;;;;;;;1.44;100.00;99814.44;4995573;28;20048;-68
2024/01/15 01:43:04;;;;;;;31.15;13.73;;;;;;;1.31;100.00;99807.44;4992746;28;20049;-68
2024/01/15 01:45:30;;;;;;;36.65;14.23;;;;;;;1.25;100.00;99812.47;4994613;28;20046;-68
2024/01/15 01:47:56;;;;;;;35.08;14.98;;;;;;;1.18;100.00;99800.50;4994055;28;20116;-68
2024/01/15 01:50:22;;;;;;;31.92;15.93;;;;;;;1.16;100.00;99803.03;4992140;28;20383;-68
2024/01/15 01:52:48;;;;;;;37.63;16.50;;;;;;;1.14;100.00;99804.69;4989129;28;20042;-68
2024/01/15 01:55:14;;;;;;;35.28;15.32;;;;;;;1.16;100.00;99797.94;4998820;28;20069;-68
2024/01/15 01:57:41;;;;;;;39.63;15.82;;;;;;;1.18;100.00;99797.97;4992649;28;20058;-68
2024/01/15 02:00:07;;;;;;;40.20;16.35;;;;;;;1.21;100.00;99801.38;4991401;28;20047;-68
2024/01/15 02:02:33;;;;;;;40.33;17.73;;;;;;;1.23;100.00;99797.19;4988022;28;20061;-68
2024/01/15 02:04:59;;;;;;;41.50;17.33;;;;;;;1.27;100.00;99806.56;4992521;28;20088;-68
2024/01/15 02:07:25;;;;;;;37.15;16.05;;;;;;;1.36;100.00;99797.34;4992469;28;20479;-68
2024/01/15 02:09:50;;;;;;;36.50;15.73;;;;;;;1.40;100.00;99796.53;4991858;28;20039;-68
2024/01/15 02:12:16;;;;;;;37.60;16.60;;;;;;;1.44;100.00;99798.28;4992738;28;20071;-67
2024/01/15 02:14:42;;;;;;;36.17;15.65;;;;;;;1.45;100.00;99802.56;4992127;28;20676;-67
2024/01/15 02:17:07;;;;;;;39.13;15.20;;;;;;;1.47;100.00;99796.66;4990068;28;20029;-68
2024/01/15 02:19:32;;;;;;;38.80;16.38;;;;;;;1.48;100.00;99795.78;4992122;28;20524;-67
2024/01/15 02:21:58;;;;;;;35.08;16.42;;;;;;;1.48;100.00;99800.06;4994476;28;20104;-67
2024/01/15 02:24:23;;;;;;;37.50;15.93;;;;;;;1.49;100.00;99796.66;4996873;28;20062;-68
2024/01/15 02:26:49;;;;;;;41.85;16.85;;;;;;;1.49;100.00;99794.97;4994523;28;20046;-68
2024/01/15 02:29:15;;;;;;;35.53;16.88;;;;;;;1.51;100.00;99795.81;4991757;28;20384;-68
2024/01/15 02:31:41;;;;;;;37.88;15.43;;;;;;;1.52;100.00;99795.00;4992855;28;20097;-68
2024/01/15 02:34:06;;;;;;;33.53;15.30;;;;;;;1.53;100.00;99789.09;4987217;28;20471;-68
2024/01/15 02:36:32;;;;;;;35.35;15.93;;;;;;;1.53;100.00;99806.91;4985361;28;20030;-68
2024/01/15 02:38:57;;;;;;;36.17;15.35;;;;;;;1.53;100.00;99798.41;4990506;28;20034;-68
2024/01/15 02:41:23;;;;;;;32.95;15.60;;;;;;;1.52;100.00;99799.22;4997471;28;20383;-68
2024/01/15 02:43:48;;;;;;;40.50;17.30;;;;;;;1.51;100.00;99802.63;4989444;28;20042;-68
2024/01/15 02:46:14;;;;;;;35.88;14.95;;;;;;;1.52;100.00;99801.78;4989626;28;20085;-67
2024/01/15 02:48:39;;;;;;;34.15;15.02;;;;;;;1.51;100.00;99800.91;4991778;28;20038;-67
2024/01/15 02:51:05;;;;;;;32.85;15.00;;;;;;;1.52;100.00;99797.53;4992054;28;20040;-68
2024/01/15 02:53:30;;;;;;;39.25;16.90;;;;;;;1.52;100.00;99789.91;4992197;28;20035;-68
2024/01/15 02:55:56;;;;;;;35.17;15.55;;;;;;;1.52;100.00;99789.91;4989346;28;20037;-68
2024/01/15 02:58:22;;;;;;;32.67;14.38;;;;;;;1.54;100.00;99787.41;4988153;28;20245;-68
2024/01/15 03:00:47;;;;;;;35.42;16.33;;;;;;;1.55;100.00;99791.63;4988830;28;20046;-68
2024/01/15 03:03:12;;;;;;;32.00;15.55;;;;;;;1.55;100.00;99789.09;4993023;28;20040;-68
2024/01/15 03:05:38;;;;;;;35.03;15.27;;;;;;;1.57;100.00;99795.91;4994938;28;20034;-68
2024/01/15 03:08:04;;;;;;;31.52;13.85;;;;;;;1.56;100.00;99804.41;4989697;28;20480;-69
2024/01/15 03:10:29;;;;;;;32.17;15.52;;;;;;;1.56;100.00;99798.44;4991110;28;20041;-68
2024/01/15 03:12:54;;;;;;;37.80;15.48;;;;;;;1.54;100.00;99803.50;4990838;28;20451;-68
2024/01/15 03:15:20;;;;;;;35.00;14.45;;;;;;;1.56;100.00;99801.00;4986406;28;20407;-68
2024/01/15 03:17:45;;;;;;;29.52;14.27;;;;;;;1.56;100.00;99801.00;4987056;28;20064;-68
2024/01/15 03:20:12;;;;;;;30.50;14.10;;;;;;;1.57;100.00;99801.00;4992059;28;20084;-68
2024/01/15 03:22:37;;;;;;;30.65;14.95;;;;;;;1.56;100.00;99804.41;4989153;28;20042;-68
2024/01/15 03:25:03;;;;;;;30.60;13.60;;;;;;;1.59;100.00;99803.56;4987993;28;20073;-68
2024/01/15 03:27:29;;;;;;;33.60;14.00;;;;;;;1.59;100.00;99799.34;4987957;28;20133;-67
2024/01/15 03:29:55;;;;;;;30.17;13.85;;;;;;;1.58;100.00;99806.94;4987831;28;20117;-68
2024/01/15 03:32:20;;;;;;;29.63;14.40;;;;;;;1.57;100.00;99800.13;4990050;28;20368;-67
2024/01/15 03:34:47;;;;;;;28.27;13.88;;;;;;;1.53;100.00;99794.16;4988736;28;20498;-68
2024/01/15 03:37:13;;;;;;;30.65;13.73;;;;;;;1.53;100.00;99789.09;4988517;28;20416;-68
2024/01/15 03:39:38;;;;;;;25.17;12.73;;;;;;;1.52;100.00;99795.00;4986437;28;20053;-68
2024/01/15 03:42:03;;;;;;;26.33;13.07;;;;;;;1.52;100.00;99794.13;4989145;28;20053;-68
2024/01/15 03:44:29;;;;;;;27.08;12.88;;;;;;;1.51;100.00;99800.91;4992159;28;20476;-68
2024/01/15 03:46:55;;;;;;;25.83;11.45;;;;;;;1.55;100.00;99805.22;4991046;28;20110;-68
2024/01/15 03:49:20;;;;;;;26.00;12.25;;;;;;;1.57;100.00;99793.34;4992242;28;20026;-69
2024/01/15 03:51:45;;;;;;;29.80;14.00;;;;;;;1.58;100.00;99794.22;4995712;28;20157;-68
2024/01/15 03:54:11;;;;;;;27.88;13.35;;;;;;;1.57;100.00;99798.44;4988443;28;20502;-68
2024/01/15 03:56:36;;;;;;;26.17;13.75;;;;;;;1.59;100.00;99796.78;4987314;28;20027;-68
2024/01/15 03:59:02;;;;;;;27.77;13.75;;;;;;;1.61;100.00;99778.97;4990659;28;20045;-69
2024/01/15 04:01:27;;;;;;;29.58;14.30;;;;;;;1.62;100.00;99780.69;4988604;28;20114;-68
2024/01/15 04:03:53;;;;;;;33.35;14.65;;;;;;;1.65;100.00;99781.59;4985303;28;20503;-68
2024/01/15 04:06:18;;;;;;;30.60;13.85;;;;;;;1.66;100.00;99787.50;4984406;28;20383;-69
2024/01/15 04:08:43;;;;;;;30.00;14.23;;;;;;;1.66;100.00;99790.06;4984069;28;20396;-68
2024/01/15 04:11:09;;;;;;;28.25;13.15;;;;;;;1.65;100.00;99778.19;4986976;28;20098;-68
2024/01/15 04:13:34;;;;;;;32.30;14.95;;;;;;;1.65;100.00;99779.03;4985927;28;20121;-68
2024/01/15 04:16:00;;;;;;;29.13;14.55;;;;;;;1.66;100.00;99774.78;4984840;28;20042;-69
2024/01/15 04:18:26;;;;;;;31.63;14.98;;;;;;;1.64;100.00;99771.38;4989864;28;20062;-68
2024/01/15 04:20:51;;;;;;;33.85;15.30;;;;;;;1.60;100.00;99773.00;4991943;28;20030;-69
2024/01/15 04:23:16;;;;;;;35.92;14.65;;;;;;;1.59;100.00;99775.56;4993835;28;20033;-68
2024/01/15 04:25:42;;;;;;;33.58;14.52;;;;;;;1.55;100.00;99771.25;4987784;28;20136;-68
2024/01/15 04:28:09;;;;;;;29.00;14.95;;;;;;;1.56;100.00;99778.94;4984452;28;20403;-68
2024/01/15 04:30:34;;;;;;;27.77;13.07;;;;;;;1.60;100.00;99770.47;4989888;28;20120;-68
2024/01/15 04:33:00;;;;;;;26.48;13.70;;;;;;;1.59;100.00;99763.69;4985878;28;20064;-68
2024/01/15 04:35:25;;;;;;;27.38;12.88;;;;;;;1.61;100.00;99758.59;4982975;28;20085;-68
2024/01/15 04:37:50;;;;;;;30.05;13.57;;;;;;;1.61;100.00;99762.00;4986906;28;20434;-68
2024/01/15 04:40:16;;;;;;;32.53;12.43;;;;;;;1.62;100.00;99758.63;4986428;28;20054;-68
2024/01/15 04:42:41;;;;;;;24.88;12.18;;;;;;;1.61;100.00;99756.06;4986867;28;20470;-68
2024/01/15 04:45:07;;;;;;;29.05;12.60;;;;;;;1.59;100.00;99758.59;4988864;28;20037;-68
2024/01/15 04:47:32;;;;;;;28.88;12.30;;;;;;;1.57;100.00;99756.84;4987127;28;20545;-68
2024/01/15 04:49:58;;;;;;;20.08;10.68;;;;;;;1.55;100.00;99759.38;4986045;28;20014;-68
2024/01/15 04:52:23;;;;;;;26.48;12.93;;;;;;;1.53;100.00;99752.56;4984040;28;20045;-68
2024/01/15 04:54:49;;;;;;;22.30;10.60;;;;;;;1.50;100.00;99747.44;4985648;28;20050;-67
2024/01/15 04:57:14;;;;;;;25.52;11.23;;;;;;;1.52;100.00;99745.75;4987224;28;20249;-68
2024/01/15 04:59:40;;;;;;;21.85;10.90;;;;;;;1.54;100.00;99741.56;4983488;28;20467;-67
2024/01/15 05:02:05;;;;;;;20.58;10.27;;;;;;;1.55;100.00;99745.78;4987036;28;20128;-68
2024/01/15 05:04:32;;;;;;;19.27;10.80;;;;;;;1.57;100.00;99741.56;4987142;28;20038;-67
2024/01/15 05:06:58;;;;;;;21.67;10.43;;;;;;;1.57;100.00;99746.66;4985066;28;20092;-68
2024/01/15 05:09:23;;;;;;;22.80;10.93;;;;;;;1.58;100.00;99743.28;4981137;28;20038;-67
2024/01/15 05:11:49;;;;;;;22.58;9.98;;;;;;;1.63;100.00;99734.00;4986263;28;20789;-68
2024/01/15 05:14:14;;;;;;;21.77;10.02;;;;;;;1.66;100.00;99739.13;4981149;28;20633;-68
2024/01/15 05:16:46;;;;;;;18.45;9.13;;;;;;;1.71;100.00;99734.94;4986744;28;20042;-68
2024/01/15 05:19:11;;;;;;;19.20;10.88;;;;;;;1.76;100.00;99743.47;4990346;28;20038;-68
2024/01/15 05:21:37;;;;;;;20.80;10.05;;;;;;;1.79;100.00;99740.97;4988339;28;20100;-68
2024/01/15 05:24:02;;;;;;;22.77;10.55;;;;;;;1.82;100.00;99734.22;4984800;28;20509;-68
2024/01/15 05:26:28;;;;;;;22.40;10.73;;;;;;;1.84;100.00;99731.66;4987177;28;20112;-68
2024/01/15 05:28:53;;;;;;;24.42;11.15;;;;;;;1.83;100.00;99746.09;4986413;28;20042;-67
2024/01/15 05:31:18;;;;;;;20.65;10.50;;;;;;;1.85;100.00;99741.88;4987472;28;20170;-68
2024/01/15 05:33:44;;;;;;;24.05;10.73;;;;;;;1.87;100.00;99741.88;4984393;28;20553;-68
2024/01/15 05:36:09;;;;;;;20.42;10.90;;;;;;;1.85;100.00;99739.34;4985977;28;20134;-68
2024/01/15 05:38:34;;;;;;;22.50;12.00;;;;;;;1.82;100.00;99730.81;4991129;28;20100;-67
2024/01/15 05:41:00;;;;;;;24.30;11.25;;;;;;;1.79;100.00;99729.09;4984686;28;20112;-67
2024/01/15 05:43:25;;;;;;;23.50;11.25;;;;;;;1.75;100.00;99732.44;4987721;28;20096;-68
2024/01/15 05:45:51;;;;;;;25.90;11.85;;;;;;;1.75;100.00;99734.13;4986818;28;20053;-68
2024/01/15 05:48:16;;;;;;;22.92;11.25;;;;;;;1.73;100.00;99735.81;4987348;28;20038;-68
2024/01/15 05:50:42;;;;;;;24.10;12.40;;;;;;;1.77;100.00;99742.66;4986514;28;20303;-68
2024/01/15 05:53:07;;;;;;;23.02;11.43;;;;;;;1.76;100.00;99734.16;4986685;28;20136;-66
2024/01/15 05:55:32;;;;;;;26.63;12.75;;;;;;;1.80;100.00;99738.44;4986960;28;20073;-66
2024/01/15 05:57:58;;;;;;;26.38;12.43;;;;;;;1.82;100.00;99741.00;4983939;28;20046;-66
2024/01/15 06:00:23;;;;;;;28.80;12.73;;;;;;;1.85;100.00;99730.84;4982327;28;20519;-67
2024/01/15 06:02:48;;;;;;;24.17;12.40;;;;;;;1.88;100.00;99730.88;4983340;28;20093;-67
2024/01/15 06:05:14;;;;;;;26.10;11.82;;;;;;;1.89;100.00;99730.03;4990148;28;20101;-67
2024/01/15 06:07:39;;;;;;;21.80;11.35;;;;;;;1.90;100.00;99723.22;4987949;28;20502;-67
2024/01/15 06:10:05;;;;;;;20.90;10.60;;;;;;;1.93;100.00;99724.13;4986074;28;20035;-67
2024/01/15 06:12:32;;;;;;;24.95;10.90;;;;;;;1.93;100.00;99726.66;4989269;28;20038;-67
2024/01/15 06:14:58;;;;;;;22.15;11.65;;;;;;;1.94;100.00;99717.31;4988311;28;20042;-66
2024/01/15 06:17:23;;;;;;;27.90;12.63;;;;;;;1.94;100.00;99723.28;4986757;28;20037;-67
2024/01/15 06:19:48;;;;;;;20.55;11.85;;;;;;;1.95;100.00;99719.03;4990378;28;20053;-66
2024/01/15 06:22:14;;;;;;;20.88;12.75;;;;;;;1.97;100.00;99714.81;4994177;28;20042;-66
2024/01/15 06:24:39;;;;;;;18.02;10.95;;;;;;;1.99;100.00;99723.31;4989584;28;20117;-66
2024/01/15 06:27:05;;;;;;;20.67;10.80;;;;;;;1.99;100.00;99715.66;4987714;28;20137;-66
2024/01/15 06:29:30;;;;;;;21.60;11.18;;;;;;;1.96;100.00;99713.94;4988388;28;20053;-66
2024/01/15 06:31:56;;;;;;;22.65;11.95;;;;;;;1.95;100.00;99708.84;4992112;28;20084;-66
2024/01/15 06:34:21;;;;;;;23.20;11.90;;;;;;;1.91;100.00;99710.50;4988713;28;20047;-66
2024/01/15 06:36:47;;;;;;;24.45;12.18;;;;;;;1.91;100.00;99707.97;4991036;28;20058;-66
2024/01/15 06:39:12;;;;;;;24.88;11.77;;;;;;;1.91;100.00;99712.19;4994947;28;20422;-66
2024/01/15 06:41:44;;;;;;;24.63;12.82;;;;;;;1.91;100.00;99714.75;4990512;28;20060;-66
2024/01/15 06:44:11;;;;;;;29.98;12.20;;;;;;;1.90;100.00;99703.69;4989079;28;20121;-67
2024/01/15 06:46:36;;;;;;;23.67;12.07;;;;;;;1.88;100.00;99705.38;4988571;28;20046;-67
2024/01/15 06:49:01;;;;;;;24.42;12.48;;;;;;;1.89;100.00;99707.09;4992178;28;20045;-67
2024/01/15 06:51:27;;;;;;;24.10;12.10;;;;;;;1.90;100.00;99703.69;4992272;28;20042;-66
2024/01/15 06:53:52;;;;;;;24.63;12.30;;;;;;;1.91;100.00;99705.41;4994936;28;20385;-67
2024/01/15 06:56:18;;;;;;;24.98;13.00;;;;;;;1.90;100.00;99710.47;4996940;28;20025;-67
2024/01/15 06:58:43;;;;;;;26.42;12.68;;;;;;;1.89;100.00;99698.59;4992419;28;20070;-67
2024/01/15 07:01:08;;;;;;;26.23;12.55;;;;;;;1.88;100.00;99700.28;4993975;28;20035;-68
2024/01/15 07:03:34;;;;;;;28.23;13.85;;;;;;;1.82;100.00;99695.13;4997233;28;20715;-67
2024/01/15 07:05:59;;;;;;;27.50;13.35;;;;;;;1.80;100.00;99702.78;4989847;28;20568;-67
2024/01/15 07:08:25;;;;;;;26.02;13.55;;;;;;;1.78;100.00;99699.34;4996216;28;20062;-67
2024/01/15 07:10:50;;;;;;;25.38;13.20;;;;;;;1.77;100.00;99696.81;4994235;28;20054;-67
2024/01/15 07:13:16;;;;;;;27.27;13.70;;;;;;;1.77;100.00;99692.56;4996427;28;20093;-67
2024/01/15 07:15:41;;;;;;;30.67;13.23;;;;;;;1.76;100.00;99700.19;4989418;28;20084;-67
2024/01/15 07:18:06;;;;;;;25.00;14.07;;;;;;;1.76;100.00;99695.09;4994456;28;20045;-67
2024/01/15 07:20:32;;;;;;;33.70;13.82;;;;;;;1.77;100.00;99692.56;4993400;28;20117;-67
2024/01/15 07:22:57;;;;;;;29.52;14.38;;;;;;;1.79;100.00;99698.53;4992457;28;20030;-67
2024/01/15 07:25:23;;;;;;;25.52;13.23;;;;;;;1.82;100.00;99700.25;4991667;28;20113;-67
2024/01/15 07:27:48;;;;;;;31.00;13.77;;;;;;;1.82;100.00;99692.59;4991436;28;20035;-67
2024/01/15 07:30:14;;;;;;;30.65;13.60;;;;;;;1.82;100.00;99698.53;4995234;28;20041;-67
2024/01/15 07:32:40;;;;;;;28.08;12.98;;;;;;;1.85;100.00;99698.56;4992485;28;20041;-67
2024/01/15 07:35:06;;;;;;;26.80;13.38;;;;;;;1.86;100.00;99699.44;4989058;28;20508;-67
2024/01/15 07:37:31;;;;;;;32.00;14.52;;;;;;;1.89;100.00;99694.38;4995209;28;20118;-67
2024/01/15 07:39:56;;;;;;;29.10;13.40;;;;;;;1.91;100.00;99692.69;4993340;28;20061;-67
2024/01/15 07:42:22;;;;;;;25.77;12.15;;;;;;;1.91;100.00;99689.28;4992235;28;20122;-67
2024/01/15 07:44:47;;;;;;;26.42;13.27;;;;;;;1.87;100.00;99685.84;4989071;28;20411;-67
2024/01/15 07:47:13;;;;;;;25.95;12.85;;;;;;;1.87;100.00;99693.47;4990672;28;20067;-67
2024/01/15 07:49:38;;;;;;;23.35;12.70;;;;;;;1.88;100.00;99686.69;4988868;28;20042;-66
2024/01/15 07:52:05;;;;;;;22.88;11.80;;;;;;;1.89;100.00;99685.88;4989616;28;20056;-66
2024/01/15 07:54:31;;;;;;;23.38;12.45;;;;;;;1.88;100.00;99690.09;4995222;28;20085;-67
2024/01/15 07:57:00;;;;;;;28.80;13.40;;;;;;;1.89;100.00;99680.78;4996364;28;20027;-67
2024/01/15 07:59:26;;;;;;;27.42;11.57;;;;;;;1.93;100.00;99690.13;4993939;28;20045;-67
2024/01/15 08:01:54;;;;;;;23.45;11.13;;;;;;;1.97;100.00;99686.78;4994257;28;20522;-66
2024/01/15 08:04:21;;;;;;;26.40;11.32;;;;;;;2.03;100.00;99689.38;4973579;28;20042;-66
2024/01/15 08:06:51;;;;;;;23.50;11.52;;;;;;;2.04;100.00;99691.97;4975768;28;20411;-66
2024/01/15 08:09:16;;;;;;;22.45;11.02;;;;;;;2.05;100.00;99693.66;4992078;28;20042;-66
2024/01/15 08:11:43;;;;;;;21.65;10.55;;;;;;;2.10;100.00;99688.59;4989753;28;20172;-66
2024/01/15 08:14:09;;;;;;;21.55;10.90;;;;;;;2.14;100.00;99687.75;4994436;28;20034;-66
2024/01/15 08:16:35;;;;;;;21.33;10.93;;;;;;;2.17;100.00;99683.56;4983631;28;20072;-66
2024/01/15 08:19:00;;;;;;;24.40;10.85;;;;;;;2.22;100.00;99681.06;4992180;28;20492;-66
2024/01/15 08:21:29;;;;;;;25.20;10.80;;;;;;;2.26;100.00;99677.66;4997298;28;20180;-66
2024/01/15 08:23:56;;;;;;;19.75;9.80;;;;;;;2.32;100.00;99680.25;4987397;28;20385;-66
2024/01/15 08:26:21;;;;;;;23.38;10.73;;;;;;;2.37;100.00;99673.47;4991349;28;20435;-66
2024/01/15 08:28:46;;;;;;;22.85;11.25;;;;;;;2.41;100.00;99670.97;4992397;28;20120;-66
2024/01/15 08:31:12;;;;;;;25.25;10.98;;;;;;;2.46;100.00;99676.09;4991591;28;20042;-66
2024/01/15 08:33:38;;;;;;;21.88;10.15;;;;;;;2.51;100.00;99668.50;4990138;28;20050;-66
2024/01/15 08:36:03;;;;;;;23.10;9.73;;;;;;;2.48;100.00;99666.78;4989209;28;20407;-66
2024/01/15 08:38:29;;;;;;;21.40;10.20;;;;;;;2.48;100.00;99673.56;4991850;28;20058;-66
2024/01/15 08:40:56;;;;;;;21.85;10.75;;;;;;;2.47;100.00;99666.75;4998277;28;20026;-66
2024/01/15 08:43:22;;;;;;;25.15;12.23;;;;;;;2.50;100.00;99670.19;4989254;28;20038;-66
2024/01/15 08:45:48;;;;;;;24.15;11.30;;;;;;;2.53;100.00;99675.31;4994119;28;20478;-66
2024/01/15 08:48:13;;;;;;;22.92;12.15;;;;;;;2.57;100.00;99677.03;4992359;28;20034;-66
2024/01/15 08:50:39;;;;;;;25.08;11.65;;;;;;;2.55;100.00;99671.06;4993786;28;20084;-67
2024/01/15 08:53:04;;;;;;;26.10;11.82;;;;;;;2.55;100.00;99670.22;4986443;28;20038;-66
2024/01/15 08:55:29;;;;;;;21.88;10.68;;;;;;;2.55;100.00;99677.88;4994102;28;20686;-66
2024/01/15 08:57:55;;;;;;;22.52;12.07;;;;;;;2.59;100.00;99677.03;4996356;28;20034;-66
2024/01/15 09:00:20;;;;;;;23.52;11.82;;;;;;;2.60;100.00;99669.41;4992936;28;20042;-66
2024/01/15 09:02:46;;;;;;;19.45;10.45;;;;;;;2.63;100.00;99679.63;4989182;28;20031;-66
2024/01/15 09:05:11;;;;;;;26.58;11.95;;;;;;;2.64;100.00;99675.34;4990700;28;20042;-66
2024/01/15 09:07:37;;;;;;;21.23;11.00;;;;;;;2.65;100.00;99674.53;4989692;28;20042;-66
2024/01/15 09:10:02;;;;;;;19.55;10.00;;;;;;;2.68;100.00;99674.53;4992304;28;20039;-66
2024/01/15 09:12:29;;;;;;;25.05;12.02;;;;;;;2.72;100.00;99671.16;4980425;28;20125;-67
2024/01/15 09:14:55;;;;;;;22.80;10.80;;;;;;;2.73;100.00;99680.50;4990122;28;20046;-67
2024/01/15 09:17:23;;;;;;;30.92;11.98;;;;;;;2.72;100.00;99677.13;4986559;28;20050;-66
2024/01/15 09:19:48;;;;;;;24.27;10.20;;;;;;;2.74;100.00;99666.91;4988102;28;20050;-66
2024/01/15 09:22:14;;;;;;;24.23;10.82;;;;;;;2.77;100.00;99672.91;4992683;28;20034;-66
2024/01/15 09:24:42;;;;;;;21.90;10.82;;;;;;;2.78;100.00;99666.97;4991166;28;20034;-66
2024/01/15 09:27:08;;;;;;;22.10;10.75;;;;;;;2.79;100.00;99662.69;4993462;28;20117;-67
2024/01/15 09:29:34;;;;;;;21.15;9.90;;;;;;;2.79;100.00;99675.44;4986009;28;20117;-67
2024/01/15 09:31:59;;;;;;;20.23;9.98;;;;;;;2.77;100.00;99672.91;4989887;28;20046;-66
2024/01/15 09:34:25;;;;;;;19.42;10.30;;;;;;;2.75;100.00;99678.84;4987107;28;20042;-66
2024/01/15 09:36:50;;;;;;;19.92;9.05;;;;;;;2.71;100.00;99675.41;4997585;28;20104;-66
2024/01/15 09:39:15;;;;;;;22.33;9.60;;;;;;;2.70;100.00;99685.59;4997507;28;20497;-66
2024/01/15 09:41:42;;;;;;;22.02;8.95;;;;;;;2.65;100.00;99687.28;4995660;28;20065;-65
2024/01/15 09:44:08;;;;;;;18.27;8.13;;;;;;;2.52;100.00;99690.63;4991396;28;20030;-66
2024/01/15 09:46:35;;;;;;;18.02;7.90;;;;;;;2.46;100.00;99701.59;4994150;28;20041;-66
2024/01/15 09:49:01;;;;;;;15.75;7.97;;;;;;;2.40;100.00;99697.31;4995819;28;20114;-66
2024/01/15 09:51:30;;;;;;;16.45;8.90;;;;;;;2.30;100.00;99708.31;4990065;28;20073;-66
2024/01/15 09:53:57;;;;;;;14.60;8.40;;;;;;;2.21;100.00;99707.38;4987131;28;20077;-66
2024/01/15 09:56:23;;;;;;;17.38;8.38;;;;;;;2.15;100.00;99712.44;5002292;28;20030;-66
2024/01/15 09:58:51;;;;;;;18.83;8.68;;;;;;;2.06;100.00;99704.69;4998182;28;20507;-67
2024/01/15 10:01:17;;;;;;;14.30;7.47;;;;;;;2.06;100.00;99709.78;4997036;28;20056;-66
2024/01/15 10:03:42;;;;;;;17.38;8.23;;;;;;;2.05;100.00;99714.03;4992177;28;20125;-66
2024/01/15 10:06:09;;;;;;;15.18;8.02;;;;;;;1.96;100.00;99718.19;4995837;28;20603;-67
2024/01/15 10:08:39;;;;;;;15.52;8.30;;;;;;;1.86;100.00;99723.19;5000116;28;20134;-67
2024/01/15 10:11:05;;;;;;;10.48;7.30;;;;;;;1.74;100.00;99728.19;4992747;28;20042;-67
2024/01/15 10:13:30;;;;;;;14.02;8.10;;;;;;;1.70;100.00;99728.13;4991039;28;20470;-67
2024/01/15 10:15:56;;;;;;;14.95;8.48;;;;;;;1.63;100.00;99728.91;4991807;28;20210;-67
2024/01/15 10:18:21;;;;;;;14.57;8.18;;;;;;;1.60;100.00;99729.72;4992781;28;20034;-67
2024/01/15 10:20:47;;;;;;;15.60;9.45;;;;;;;1.65;100.00;99727.25;4991141;28;20022;-67
2024/01/15 10:23:14;;;;;;;13.93;8.85;;;;;;;1.72;100.00;99727.31;4992872;28;20033;-67
2024/01/15 10:25:42;;;;;;;16.00;8.98;;;;;;;1.80;100.00;99719.75;4993567;28;20039;-67
2024/01/15 10:28:07;;;;;;;15.82;9.15;;;;;;;1.87;100.00;99729.16;4991599;28;20046;-67
2024/01/15 10:30:33;;;;;;;19.08;10.35;;;;;;;1.87;100.00;99729.16;4994111;28;20037;-67
2024/01/15 10:33:01;;;;;;;16.08;10.00;;;;;;;1.90;100.00;99720.66;4993886;28;20132;-68
2024/01/15 10:35:31;;;;;;;13.43;8.93;;;;;;;1.88;100.00;99724.91;4995342;28;20034;-67
2024/01/15 10:37:56;;;;;;;20.00;9.20;;;;;;;1.83;100.00;99727.44;4989832;28;20049;-67
2024/01/15 10:40:22;;;;;;;15.23;8.98;;;;;;;1.80;100.00;99724.84;4997486;28;20510;-67
2024/01/15 10:42:48;;;;;;;13.57;8.40;;;;;;;1.72;100.00;99734.94;4996636;28;20046;-68
2024/01/15 10:45:14;;;;;;;15.00;9.07;;;;;;;1.67;100.00;99730.66;4993983;28;20380;-67
2024/01/15 10:47:40;;;;;;;16.48;8.07;;;;;;;1.66;100.00;99737.44;4992487;28;20030;-67
2024/01/15 10:50:07;;;;;;;16.33;9.55;;;;;;;1.66;100.00;99723.84;4990599;28;20030;-67
2024/01/15 10:52:45;;;;;;;18.85;9.02;;;;;;;1.71;100.00;99727.31;4986811;28;20121;-68
2024/01/15 10:55:11;;;;;;;13.20;9.15;;;;;;;1.75;100.00;99734.13;4991378;28;20570;-67
2024/01/15 10:57:37;;;;;;;17.40;10.00;;;;;;;1.77;100.00;99727.38;4993962;28;20037;-67
2024/01/15 11:00:06;;;;;;;12.15;8.32;;;;;;;1.76;100.00;99720.56;4989837;28;20036;-67
2024/01/15 11:02:37;;;;;;;16.23;7.63;;;;;;;1.69;100.00;99731.50;4990434;28;20034;-68
2024/01/15 11:05:02;;;;;;;11.02;7.22;;;;;;;1.62;100.00;99734.84;4995643;28;20038;-68
2024/01/15 11:07:30;;;;;;;11.05;7.38;;;;;;;1.56;100.00;99730.53;4995827;28;20038;-67
2024/01/15 11:09:58;;;;;;;14.63;8.15;;;;;;;1.52;100.00;99730.47;4989931;28;20539;-68
2024/01/15 11:12:24;;;;;;;12.70;7.45;;;;;;;1.47;100.00;99727.91;4989834;28;20495;-67